Time;durP1;ratioP1;P1;durP2;ratioP2;P2;SDS_P1;SDS_P2;PMS_P1;PMS_P2;Temp;Humidity;BMP_temperature;BMP_pressure;BME280_temperature;BME280_humidity;BME280_pressure;Samples;Min_cycle;Max_cycle;Signal;HPM_P1;HPM_P2
2022/01/30 00:00:45;;;;;;;25.13;3.40;;;6.70;99.90;;;;;;5058249;28;20056;-93
2022/01/30 00:03:11;;;;;;;21.80;3.08;;;6.30;99.90;;;;;;5058506;28;20074;-91
2022/01/30 00:05:37;;;;;;;24.35;3.13;;;6.30;99.90;;;;;;5057966;28;20047;-94
2022/01/30 00:08:03;;;;;;;13.63;2.80;;;6.50;99.90;;;;;;5058481;28;20497;-92
2022/01/30 00:10:37;;;;;;;20.42;3.65;;;6.20;99.90;;;;;;5074557;28;20139;-92
2022/01/30 00:13:05;;;;;;;19.73;3.08;;;6.20;99.90;;;;;;5058681;28;20056;-95
2022/01/30 00:15:48;;;;;;;21.08;3.30;;;6.10;99.90;;;;;;5059014;28;20064;-94
2022/01/30 00:20:42;;;;;;;18.88;3.25;;;6.30;99.90;;;;;;5074579;28;20044;-93
2022/01/30 00:23:21;;;;;;;23.98;3.13;;;6.00;99.90;;;;;;5058951;28;20089;-93
2022/01/30 00:25:52;;;;;;;25.10;3.40;;;6.00;99.90;;;;;;5059228;28;20862;-94
2022/01/30 00:28:21;;;;;;;30.30;3.67;;;5.90;99.90;;;;;;5058298;28;20562;-95
2022/01/30 00:30:47;;;;;;;20.15;2.67;;;6.00;99.90;;;;;;5060329;28;20115;-90
2022/01/30 00:33:13;;;;;;;22.63;2.83;;;5.80;99.90;;;;;;5059400;28;20395;-94
2022/01/30 00:35:39;;;;;;;29.35;3.97;;;5.90;99.90;;;;;;5059212;28;20055;-92
2022/01/30 00:38:15;;;;;;;22.63;2.85;;;5.90;99.90;;;;;;5057310;28;20045;-94
2022/01/30 00:40:42;;;;;;;25.38;3.80;;;6.10;99.90;;;;;;5057704;28;20125;-93
2022/01/30 00:43:09;;;;;;;21.52;2.88;;;5.90;99.90;;;;;;5058003;28;20047;-91
2022/01/30 00:45:35;;;;;;;21.27;3.13;;;5.80;99.90;;;;;;5074404;28;20045;-95
2022/01/30 00:48:01;;;;;;;24.88;2.80;;;5.90;99.90;;;;;;5056835;28;20132;-93
2022/01/30 00:50:27;;;;;;;29.25;3.67;;;5.80;99.90;;;;;;5057092;28;20044;-94
2022/01/30 00:52:55;;;;;;;27.60;4.55;;;5.60;99.90;;;;;;5057555;28;20150;-91
2022/01/30 00:55:22;;;;;;;24.63;3.60;;;5.60;99.90;;;;;;5057586;28;20048;-94
2022/01/30 00:57:51;;;;;;;23.23;3.05;;;5.70;99.90;;;;;;5057126;28;20868;-93
2022/01/30 01:00:17;;;;;;;27.50;3.58;;;5.50;99.90;;;;;;5057803;28;20127;-94
2022/01/30 01:02:44;;;;;;;22.05;3.88;;;5.50;99.90;;;;;;5057418;28;20529;-93
2022/01/30 01:05:13;;;;;;;25.63;3.75;;;5.50;99.90;;;;;;5057359;28;20044;-94
2022/01/30 01:07:47;;;;;;;27.02;3.00;;;5.80;99.90;;;;;;5057629;28;20048;-93
2022/01/30 01:10:38;;;;;;;19.88;2.88;;;5.80;99.90;;;;;;5056829;28;20055;-93
2022/01/30 01:13:16;;;;;;;25.35;3.05;;;5.90;99.90;;;;;;5073822;28;20070;-88
2022/01/30 01:23:55;;;;;;;22.48;3.40;;;5.60;99.90;;;;;;5015949;28;20089;-92
2022/01/30 01:26:24;;;;;;;20.00;2.78;;;5.60;99.90;;;;;;5015972;28;20139;-93
2022/01/30 01:28:51;;;;;;;22.35;2.70;;;5.90;99.90;;;;;;5016038;28;20053;-93
2022/01/30 01:31:17;;;;;;;23.33;3.30;;;5.60;99.90;;;;;;4999246;28;20499;-92
2022/01/30 01:36:11;;;;;;;20.48;3.40;;;5.60;99.90;;;;;;5015573;28;20049;-94
2022/01/30 01:38:37;;;;;;;15.25;1.88;;;5.60;99.90;;;;;;4999531;28;20041;-94
2022/01/30 01:41:02;;;;;;;19.75;2.75;;;5.70;99.90;;;;;;4999637;28;20419;-93
2022/01/30 01:43:28;;;;;;;13.10;2.10;;;5.60;99.90;;;;;;4999581;28;20065;-94
2022/01/30 01:45:56;;;;;;;14.63;2.47;;;5.70;99.90;;;;;;4999395;28;20457;-91
2022/01/30 01:48:22;;;;;;;9.93;2.13;;;5.50;99.90;;;;;;4999287;28;20115;-92
2022/01/30 01:51:03;;;;;;;25.77;2.45;;;5.50;99.90;;;;;;5015547;28;20490;-94
2022/01/30 01:53:29;;;;;;;13.00;1.63;;;5.70;99.90;;;;;;4999047;28;20046;-93
2022/01/30 01:55:54;;;;;;;11.95;2.05;;;5.40;99.90;;;;;;5052858;28;20049;-93
2022/01/30 01:58:24;;;;;;;10.15;1.65;;;5.10;99.90;;;;;;5055756;28;20135;-89
2022/01/30 02:00:50;;;;;;;15.75;2.25;;;5.20;99.90;;;;;;5072869;28;20044;-92
2022/01/30 02:03:17;;;;;;;19.90;2.30;;;5.30;99.90;;;;;;5056481;28;20136;-88
2022/01/30 02:05:51;;;;;;;22.92;2.97;;;5.10;99.90;;;;;;5056072;28;20041;-93
2022/01/30 02:24:55;;;;;;;28.08;3.80;;;5.40;99.90;;;;;;5034922;28;20049;-93
2022/01/30 02:27:25;;;;;;;19.73;3.15;;;5.60;99.90;;;;;;5018248;28;20490;-93
2022/01/30 02:29:51;;;;;;;23.90;2.67;;;5.20;99.90;;;;;;5034938;28;20128;-93
2022/01/30 02:32:18;;;;;;;19.58;2.97;;;5.30;99.90;;;;;;5018553;28;20156;-93
2022/01/30 02:34:44;;;;;;;19.10;2.50;;;5.60;99.90;;;;;;5035251;28;20044;-92
2022/01/30 02:37:14;;;;;;;25.50;3.50;;;5.50;99.90;;;;;;5034529;28;20127;-92
2022/01/30 02:39:40;;;;;;;21.77;3.30;;;5.60;99.90;;;;;;5018250;28;20063;-93
2022/01/30 02:42:06;;;;;;;22.80;3.13;;;5.70;99.90;;;;;;5019138;28;20112;-93
2022/01/30 02:46:59;;;;;;;27.80;3.83;;;5.70;99.90;;;;;;5038096;28;20126;-94
2022/01/30 02:49:30;;;;;;;19.45;2.88;;;5.40;99.90;;;;;;5038720;28;20045;-92
2022/01/30 02:52:02;;;;;;;23.75;2.60;;;5.70;99.90;;;;;;5021627;28;20064;-92
2022/01/30 02:54:30;;;;;;;24.20;3.05;;;5.90;99.90;;;;;;5021816;28;20055;-93
2022/01/30 02:56:57;;;;;;;19.73;2.60;;;5.70;99.90;;;;;;5021600;28;20048;-94
2022/01/30 02:59:23;;;;;;;19.95;3.40;;;5.60;99.90;;;;;;5072711;28;20492;-92
2022/01/30 03:01:49;;;;;;;28.75;3.35;;;5.60;99.90;;;;;;5075982;28;20101;-93
2022/01/30 03:04:16;;;;;;;19.33;3.15;;;5.50;99.90;;;;;;5059276;28;20109;-94
2022/01/30 03:06:44;;;;;;;23.23;2.90;;;5.60;99.90;;;;;;5059214;28;20089;-92
2022/01/30 03:09:10;;;;;;;20.90;2.88;;;5.60;99.90;;;;;;5059096;28;20044;-94
2022/01/30 03:11:36;;;;;;;22.45;3.03;;;5.60;99.90;;;;;;5059797;28;20556;-93
2022/01/30 03:14:03;;;;;;;19.65;2.83;;;5.70;99.90;;;;;;5059217;28;20059;-93
2022/01/30 03:16:29;;;;;;;11.75;2.50;;;5.70;99.90;;;;;;5058899;28;20383;-93
2022/01/30 03:18:55;;;;;;;19.67;2.55;;;5.50;99.90;;;;;;5058965;28;20131;-92
2022/01/30 03:21:22;;;;;;;24.85;3.05;;;5.90;99.90;;;;;;5075479;28;20549;-94
2022/01/30 03:23:49;;;;;;;24.15;3.00;;;5.90;99.90;;;;;;5075040;28;20044;-93
2022/01/30 03:26:15;;;;;;;23.05;3.10;;;6.20;99.90;;;;;;5075333;28;20079;-92
2022/01/30 03:28:42;;;;;;;20.20;3.15;;;6.30;99.90;;;;;;5075229;28;20037;-93
2022/01/30 03:31:11;;;;;;;26.55;3.42;;;6.00;99.90;;;;;;5058587;28;20049;-94
2022/01/30 03:33:38;;;;;;;20.45;3.10;;;6.30;99.90;;;;;;5057990;28;20139;-94
2022/01/30 03:36:04;;;;;;;21.77;3.50;;;6.00;99.90;;;;;;5075358;28;20437;-93
2022/01/30 03:38:30;;;;;;;27.00;3.13;;;6.00;99.90;;;;;;5075461;28;20048;-90
2022/01/30 03:40:56;;;;;;;31.48;3.80;;;6.30;99.90;;;;;;5058719;28;20053;-92
2022/01/30 03:43:22;;;;;;;24.55;3.70;;;5.80;99.90;;;;;;5075404;28;20040;-93
2022/01/30 03:45:49;;;;;;;29.95;3.88;;;5.70;99.90;;;;;;5075287;28;20083;-94
2022/01/30 03:48:15;;;;;;;28.35;3.58;;;5.60;99.90;;;;;;5059743;28;20052;-94
2022/01/30 03:50:42;;;;;;;32.83;4.10;;;6.00;99.90;;;;;;5075378;28;20083;-93
2022/01/30 03:53:10;;;;;;;33.60;3.72;;;5.40;99.90;;;;;;5058014;28;20117;-92
2022/01/30 03:55:38;;;;;;;31.45;4.97;;;5.40;99.90;;;;;;5059751;28;20135;-94
2022/01/30 03:58:05;;;;;;;34.20;3.40;;;5.40;99.90;;;;;;5058433;28;20060;-93
2022/01/30 04:00:30;;;;;;;28.45;4.93;;;5.50;99.90;;;;;;5062794;28;20103;-91
2022/01/30 04:02:56;;;;;;;33.90;4.18;;;5.20;99.90;;;;;;5059787;28;20486;-94
2022/01/30 04:05:22;;;;;;;35.40;4.28;;;5.10;99.90;;;;;;5058705;28;20044;-94
2022/01/30 04:07:50;;;;;;;23.67;3.67;;;5.00;99.90;;;;;;5075000;28;20048;-93
2022/01/30 04:10:16;;;;;;;22.40;3.95;;;5.00;99.90;;;;;;5057914;28;20048;-94
2022/01/30 04:12:42;;;;;;;28.38;4.45;;;5.00;99.90;;;;;;5058554;28;20048;-94
2022/01/30 04:15:09;;;;;;;43.38;5.18;;;5.00;99.90;;;;;;5058162;28;20048;-92
2022/01/30 04:17:35;;;;;;;33.70;4.90;;;5.10;99.90;;;;;;5058136;28;20040;-93
2022/01/30 04:20:02;;;;;;;39.60;5.25;;;5.20;99.90;;;;;;5058073;28;20040;-93
2022/01/30 04:22:28;;;;;;;33.28;4.68;;;5.20;99.90;;;;;;5057421;28;20090;-93
2022/01/30 04:24:53;;;;;;;30.98;4.28;;;5.50;99.90;;;;;;5057700;28;20079;-94
2022/01/30 04:27:22;;;;;;;31.42;4.20;;;5.30;99.90;;;;;;5074002;28;20100;-93
2022/01/30 04:29:54;;;;;;;32.97;4.53;;;5.10;99.90;;;;;;5057276;28;20052;-92
2022/01/30 04:32:20;;;;;;;32.53;4.57;;;5.00;99.90;;;;;;5074018;28;20049;-93
2022/01/30 04:34:53;;;;;;;41.08;4.50;;;4.90;99.90;;;;;;5073956;28;20044;-92
2022/01/30 04:37:28;;;;;;;34.42;4.00;;;4.90;99.90;;;;;;5056742;28;20047;-93
2022/01/30 05:04:27;;;;;;;32.85;5.70;;;5.20;99.90;;;;;;5016329;28;20514;-93
2022/01/30 05:09:22;;;;;;;35.95;5.68;;;5.20;99.90;;;;;;5015785;28;20408;-93
2022/01/30 05:11:47;;;;;;;32.83;5.65;;;5.00;99.90;;;;;;4999447;28;20045;-93
2022/01/30 05:14:14;;;;;;;40.38;4.97;;;5.30;99.90;;;;;;4999334;28;20055;-93
2022/01/30 05:16:40;;;;;;;41.30;5.28;;;5.20;99.90;;;;;;4999208;28;20068;-93
2022/01/30 05:19:06;;;;;;;35.33;5.03;;;5.60;99.90;;;;;;4998951;28;20053;-94
2022/01/30 05:21:32;;;;;;;28.40;4.72;;;5.20;99.90;;;;;;5015722;28;20121;-92
2022/01/30 05:23:58;;;;;;;29.58;5.07;;;5.20;99.90;;;;;;4999534;28;20095;-93
2022/01/30 05:26:26;;;;;;;37.65;5.07;;;5.00;99.90;;;;;;4999313;28;20076;-92
2022/01/30 05:28:52;;;;;;;34.95;4.88;;;5.30;99.90;;;;;;4999029;28;20053;-94
2022/01/30 05:31:18;;;;;;;44.80;5.20;;;5.20;99.90;;;;;;4999183;28;20056;-93
2022/01/30 05:33:45;;;;;;;40.55;5.07;;;5.20;99.90;;;;;;5022174;28;20045;-94
2022/01/30 05:36:11;;;;;;;34.63;4.35;;;5.10;99.90;;;;;;5056087;28;20108;-94
2022/01/30 05:38:38;;;;;;;42.33;6.63;;;5.40;99.90;;;;;;5056404;28;20383;-94
2022/01/30 05:41:04;;;;;;;40.78;5.15;;;5.00;99.90;;;;;;5056074;28;20504;-92
2022/01/30 05:43:32;;;;;;;38.85;5.45;;;4.90;99.90;;;;;;5056125;28;20053;-93
2022/01/30 05:46:16;;;;;;;32.97;5.13;;;5.00;99.90;;;;;;5056144;28;20639;-93
2022/01/30 05:48:42;;;;;;;36.50;5.05;;;5.00;99.90;;;;;;5056135;28;20481;-93
2022/01/30 05:51:08;;;;;;;48.63;6.10;;;5.00;99.90;;;;;;5073480;28;20048;-93
2022/01/30 05:53:36;;;;;;;35.08;4.60;;;5.00;99.90;;;;;;5073404;28;20045;-92
2022/01/30 05:56:02;;;;;;;36.53;5.25;;;5.00;99.90;;;;;;5056492;28;20052;-93
2022/01/30 05:58:28;;;;;;;43.17;5.80;;;5.00;99.90;;;;;;5072407;28;20052;-94
2022/01/30 06:00:53;;;;;;;37.10;5.10;;;5.00;99.90;;;;;;5072661;28;20048;-93
2022/01/30 06:03:19;;;;;;;36.13;5.45;;;4.90;99.90;;;;;;5055744;28;20051;-94
2022/01/30 06:05:46;;;;;;;31.60;5.55;;;4.90;99.90;;;;;;5055786;28;20048;-94
2022/01/30 06:08:27;;;;;;;41.97;6.15;;;4.60;99.90;;;;;;5056656;28;20142;-93
2022/01/30 06:10:52;;;;;;;32.78;4.63;;;4.80;99.90;;;;;;5056009;28;20557;-94
2022/01/30 06:13:18;;;;;;;39.75;5.03;;;4.80;99.90;;;;;;5055854;28;20043;-94
2022/01/30 06:15:44;;;;;;;43.78;5.90;;;4.80;99.90;;;;;;5055782;28;20040;-93
2022/01/30 06:18:09;;;;;;;35.20;5.95;;;4.60;99.90;;;;;;5056377;28;20131;-93
2022/01/30 06:20:35;;;;;;;36.20;4.88;;;4.70;99.90;;;;;;5060026;28;20051;-92
2022/01/30 06:23:01;;;;;;;41.05;5.82;;;4.60;99.90;;;;;;5060206;28;20094;-94
2022/01/30 06:25:27;;;;;;;45.65;5.50;;;4.60;99.90;;;;;;5059807;28;20052;-94
2022/01/30 06:27:52;;;;;;;34.58;4.82;;;4.60;99.90;;;;;;5060100;28;20052;-93
2022/01/30 06:30:21;;;;;;;36.30;5.25;;;4.90;99.90;;;;;;5076964;28;20446;-93
2022/01/30 06:32:49;;;;;;;47.22;5.18;;;4.60;99.90;;;;;;5059611;28;20052;-93
2022/01/30 06:35:15;;;;;;;48.50;5.60;;;4.60;99.90;;;;;;5059516;28;20052;-93
2022/01/30 06:37:41;;;;;;;47.20;5.65;;;4.70;99.90;;;;;;5060202;28;20052;-93
2022/01/30 06:40:07;;;;;;;33.40;5.10;;;4.60;99.90;;;;;;5076648;28;20048;-94
2022/01/30 06:42:33;;;;;;;30.80;5.30;;;4.60;99.90;;;;;;5075990;28;20044;-93
2022/01/30 06:44:59;;;;;;;40.33;6.00;;;4.60;99.90;;;;;;5059184;28;20437;-93
2022/01/30 06:47:24;;;;;;;43.58;5.57;;;4.70;99.90;;;;;;5059788;28;20387;-94
2022/01/30 06:49:50;;;;;;;32.40;5.53;;;4.80;99.90;;;;;;5059161;28;20055;-94
2022/01/30 06:52:16;;;;;;;40.33;5.80;;;4.80;99.90;;;;;;5059735;28;20075;-93
2022/01/30 06:54:45;;;;;;;43.88;5.93;;;5.20;99.90;;;;;;5059337;28;20051;-94
2022/01/30 06:57:11;;;;;;;39.33;5.07;;;4.80;99.90;;;;;;5058588;28;20095;-93
2022/01/30 06:59:40;;;;;;;42.72;5.78;;;4.80;99.90;;;;;;5076348;28;20080;-94
2022/01/30 07:02:09;;;;;;;46.60;6.55;;;4.50;99.90;;;;;;5059721;28;20044;-93
2022/01/30 07:04:34;;;;;;;53.65;6.28;;;4.90;99.90;;;;;;5076100;28;20052;-92
2022/01/30 07:07:03;;;;;;;43.30;5.68;;;5.00;99.90;;;;;;5058810;28;20054;-92
2022/01/30 07:09:30;;;;;;;46.25;5.80;;;5.40;99.90;;;;;;5058743;28;20045;-93
2022/01/30 07:11:56;;;;;;;35.97;5.28;;;5.50;99.90;;;;;;5058966;28;20135;-92
2022/01/30 07:14:22;;;;;;;46.97;6.45;;;5.20;99.90;;;;;;5058756;28;20131;-92
2022/01/30 07:16:48;;;;;;;44.42;5.88;;;5.30;99.90;;;;;;5075917;28;20500;-92
2022/01/30 07:19:16;;;;;;;43.08;6.30;;;5.40;99.90;;;;;;5058889;28;20083;-93
2022/01/30 07:21:41;;;;;;;32.47;4.88;;;5.60;99.90;;;;;;5075887;28;20051;-93
2022/01/30 07:24:08;;;;;;;44.05;7.28;;;5.50;99.90;;;;;;5059342;28;20481;-94
2022/01/30 07:26:33;;;;;;;35.85;4.72;;;5.40;99.90;;;;;;5058922;28;20055;-93
2022/01/30 07:29:00;;;;;;;42.30;5.95;;;5.60;99.90;;;;;;5057348;28;20040;-93
2022/01/30 07:31:26;;;;;;;43.83;6.05;;;5.60;99.90;;;;;;5075110;28;20048;-94
2022/01/30 07:33:52;;;;;;;45.70;5.82;;;5.60;99.90;;;;;;5058809;28;20044;-94
2022/01/30 07:36:17;;;;;;;48.30;6.10;;;5.60;99.90;;;;;;5058699;28;20523;-91
2022/01/30 07:38:43;;;;;;;42.38;5.93;;;5.90;99.90;;;;;;5058553;28;20052;-93
2022/01/30 07:41:09;;;;;;;50.90;6.40;;;5.70;99.90;;;;;;5075806;28;20044;-94
2022/01/30 07:43:35;;;;;;;45.00;5.75;;;5.50;99.90;;;;;;5058694;28;20052;-94
2022/01/30 07:46:03;;;;;;;39.92;5.97;;;5.50;99.90;;;;;;5075195;28;20045;-94
2022/01/30 07:48:29;;;;;;;36.75;5.65;;;5.50;99.90;;;;;;5058922;28;20043;-93
2022/01/30 07:50:55;;;;;;;49.35;7.15;;;5.60;99.90;;;;;;5058931;28;20056;-93
2022/01/30 07:53:21;;;;;;;37.85;6.70;;;5.50;99.90;;;;;;5059739;28;20044;-93
2022/01/30 07:55:47;;;;;;;56.80;6.80;;;5.50;99.90;;;;;;5059128;28;20049;-94
2022/01/30 07:58:13;;;;;;;32.30;5.63;;;5.50;99.90;;;;;;5075686;28;20143;-92
2022/01/30 08:00:39;;;;;;;41.00;4.78;;;5.60;99.90;;;;;;5075198;28;20040;-94
2022/01/30 08:03:05;;;;;;;39.95;6.22;;;5.80;99.90;;;;;;5058275;28;20610;-92
2022/01/30 08:05:31;;;;;;;45.53;5.82;;;5.70;99.90;;;;;;5058572;28;20082;-92
2022/01/30 08:07:57;;;;;;;35.28;5.47;;;5.70;99.90;;;;;;5074883;28;20520;-91
2022/01/30 08:10:22;;;;;;;42.53;5.93;;;5.90;99.90;;;;;;5074970;28;20543;-92
2022/01/30 08:12:48;;;;;;;40.90;6.15;;;5.90;99.90;;;;;;5058982;28;20080;-93
2022/01/30 08:15:16;;;;;;;45.85;6.05;;;6.20;99.90;;;;;;5057956;28;20044;-91
2022/01/30 08:17:42;;;;;;;43.22;5.60;;;5.90;99.90;;;;;;5057637;28;20456;-92
2022/01/30 08:20:08;;;;;;;39.75;5.95;;;5.80;99.90;;;;;;5057834;28;20056;-93
2022/01/30 08:22:54;;;;;;;47.35;6.05;;;6.00;99.90;;;;;;5074810;28;20044;-92
2022/01/30 08:25:22;;;;;;;43.17;6.30;;;6.00;99.90;;;;;;5058125;28;20044;-90
2022/01/30 08:27:49;;;;;;;37.10;5.72;;;6.20;99.90;;;;;;5074878;28;20045;-94
2022/01/30 08:30:15;;;;;;;39.45;6.47;;;6.40;99.90;;;;;;5074129;28;20050;-93
2022/01/30 08:32:46;;;;;;;52.83;6.68;;;6.10;99.90;;;;;;5073821;28;20131;-89
2022/01/30 08:35:13;;;;;;;;;;;6.00;99.90;;;;;;5074695;28;20098;-92
2022/01/30 08:37:38;;;;;;;47.72;5.07;;;6.30;99.90;;;;;;5057633;28;19921;-91
2022/01/30 08:40:16;;;;;;;50.05;5.88;;;6.00;99.90;;;;;;5076107;28;20106;-92
2022/01/30 08:42:47;;;;;;;44.78;6.05;;;6.20;99.90;;;;;;5059412;28;20498;-94
2022/01/30 08:45:15;;;;;;;47.30;7.10;;;6.10;99.90;;;;;;5058488;28;20048;-93
2022/01/30 08:47:46;;;;;;;48.60;8.02;;;6.30;99.90;;;;;;5075217;28;20052;-90
2022/01/30 08:50:14;;;;;;;44.65;6.65;;;6.20;99.90;;;;;;5057793;28;20375;-92
2022/01/30 08:52:41;;;;;;;50.88;7.18;;;6.40;99.90;;;;;;5074587;28;20041;-93
2022/01/30 08:55:14;;;;;;;45.80;7.30;;;6.40;99.90;;;;;;5059292;28;20040;-94
2022/01/30 08:57:40;;;;;;;59.75;7.25;;;6.50;99.90;;;;;;5058089;28;20057;-92
2022/01/30 09:00:12;;;;;;;41.38;6.35;;;6.30;99.90;;;;;;5074409;28;20482;-93
2022/01/30 09:02:38;;;;;;;34.78;6.70;;;6.30;99.90;;;;;;5057157;28;20090;-93
2022/01/30 09:05:06;;;;;;;48.13;6.78;;;6.30;99.90;;;;;;5074038;28;20460;-95
2022/01/30 09:07:32;;;;;;;44.30;6.85;;;6.50;99.90;;;;;;5057124;28;20062;-93
2022/01/30 09:10:01;;;;;;;49.20;7.03;;;6.80;99.90;;;;;;5057338;28;20055;-92
2022/01/30 09:12:27;;;;;;;36.75;5.63;;;6.60;99.90;;;;;;5056937;28;20418;-94
2022/01/30 09:14:54;;;;;;;34.92;5.75;;;6.60;99.90;;;;;;5056415;28;20044;-91
2022/01/30 09:17:19;;;;;;;50.78;6.57;;;6.90;99.90;;;;;;5057244;28;20041;-92
2022/01/30 09:19:47;;;;;;;44.67;6.20;;;7.00;99.90;;;;;;5057202;28;20041;-94
2022/01/30 09:22:15;;;;;;;48.08;6.70;;;7.20;99.90;;;;;;5073867;28;20398;-93
2022/01/30 09:24:42;;;;;;;36.92;5.85;;;7.60;99.90;;;;;;5057812;28;20040;-92
2022/01/30 09:27:08;;;;;;;44.95;5.70;;;7.80;99.90;;;;;;5056837;28;20048;-94
2022/01/30 09:29:36;;;;;;;35.17;5.93;;;7.80;99.90;;;;;;5073274;28;20047;-90
2022/01/30 09:32:05;;;;;;;47.83;6.45;;;7.70;99.90;;;;;;5056689;28;20048;-93
2022/01/30 09:34:31;;;;;;;38.53;5.88;;;7.70;99.90;;;;;;5073472;28;20145;-93
2022/01/30 09:36:56;;;;;;;38.28;6.43;;;7.90;99.90;;;;;;5057151;28;20040;-93
2022/01/30 09:39:23;;;;;;;31.45;6.60;;;7.60;99.90;;;;;;5057919;28;20102;-94
2022/01/30 09:41:52;;;;;;;40.53;6.43;;;7.40;99.90;;;;;;5057904;28;20097;-93
2022/01/30 09:44:19;;;;;;;29.20;5.85;;;7.40;99.90;;;;;;5056926;28;20106;-93
2022/01/30 09:46:49;;;;;;;34.05;4.95;;;8.10;99.90;;;;;;5057082;28;20080;-93
2022/01/30 09:49:17;;;;;;;34.72;5.95;;;8.80;99.90;;;;;;5057181;28;20052;-93
2022/01/30 09:51:43;;;;;;;34.20;5.55;;;9.80;99.90;;;;;;5057103;28;20079;-93
2022/01/30 09:54:11;;;;;;;40.75;5.60;;;9.90;99.90;;;;;;5056644;28;20520;-94
2022/01/30 09:56:37;;;;;;;34.15;5.10;;;10.20;99.90;;;;;;5056107;28;20041;-93
2022/01/30 09:59:04;;;;;;;25.73;4.93;;;10.50;99.60;;;;;;5056489;28;20052;-93
2022/01/30 10:01:36;;;;;;;32.50;5.35;;;10.60;97.00;;;;;;5056973;28;20405;-93
2022/01/30 10:04:04;;;;;;;30.42;6.00;;;10.80;95.60;;;;;;5056433;28;20076;-94
2022/01/30 10:06:37;;;;;;;30.73;4.18;;;11.00;93.20;;;;;;5073623;28;20076;-94
2022/01/30 10:09:29;;;;;;;34.75;5.57;;;11.30;93.10;;;;;;5057013;28;20490;-94
2022/01/30 10:12:24;;;;;;;26.67;5.38;;;11.40;91.30;;;;;;5072606;28;20044;-93
2022/01/30 10:15:11;;;;;;;31.63;5.85;;;11.60;91.60;;;;;;5072362;28;20048;-93
2022/01/30 10:17:47;;;;;;;36.17;5.93;;;11.40;87.90;;;;;;5055059;28;20036;-95
2022/01/30 10:20:15;;;;;;;34.45;6.72;;;11.50;89.80;;;;;;5057000;28;20048;-93
2022/01/30 10:22:55;;;;;;;35.17;6.43;;;11.90;92.30;;;;;;5056968;28;20049;-96
2022/01/30 10:25:33;;;;;;;38.10;5.82;;;12.10;88.40;;;;;;5056168;28;20093;-94
2022/01/30 10:28:26;;;;;;;41.20;7.18;;;12.20;85.30;;;;;;5055930;28;20048;-94
2022/01/30 10:31:04;;;;;;;34.85;6.35;;;12.10;80.20;;;;;;5056663;28;20044;-92
2022/01/30 10:33:47;;;;;;;38.20;6.10;;;11.40;86.70;;;;;;5056438;28;20099;-94
2022/01/30 10:36:22;;;;;;;38.40;6.78;;;10.70;87.80;;;;;;5056862;28;20383;-90
2022/01/30 10:38:59;;;;;;;40.30;6.25;;;10.20;96.20;;;;;;5055735;28;20574;-93
2022/01/30 10:41:38;;;;;;;34.80;6.68;;;9.70;94.30;;;;;;5056098;28;20436;-93
2022/01/30 10:44:08;;;;;;;40.35;7.28;;;9.30;98.90;;;;;;5055962;28;20097;-94
2022/01/30 10:46:54;;;;;;;49.30;6.97;;;9.00;99.90;;;;;;5056433;28;20142;-94
2022/01/30 10:49:29;;;;;;;39.17;5.57;;;9.20;99.90;;;;;;5072572;28;20087;-95
2022/01/30 10:52:01;;;;;;;45.22;7.13;;;8.70;99.90;;;;;;5056911;28;20056;-94
2022/01/30 10:54:35;;;;;;;40.65;6.68;;;8.70;99.90;;;;;;5074015;28;20047;-95
2022/01/30 10:57:09;;;;;;;41.65;6.22;;;8.50;99.90;;;;;;5056777;28;20040;-92
2022/01/30 10:59:42;;;;;;;42.83;6.43;;;8.70;99.90;;;;;;5057265;28;20083;-95
2022/01/30 11:02:13;;;;;;;47.28;6.38;;;8.90;99.90;;;;;;5056027;28;20169;-91
2022/01/30 11:04:40;;;;;;;42.13;6.60;;;8.90;99.90;;;;;;5074702;28;20478;-92
2022/01/30 11:07:06;;;;;;;48.90;6.78;;;8.90;99.90;;;;;;5060365;28;20504;-95
2022/01/30 11:09:37;;;;;;;32.75;6.60;;;9.50;99.90;;;;;;5060393;28;20107;-90
2022/01/30 11:12:14;;;;;;;33.95;6.00;;;10.10;99.90;;;;;;5060689;28;20139;-92
2022/01/30 11:17:16;;;;;;;35.45;6.22;;;10.70;93.70;;;;;;5076240;28;20045;-94
2022/01/30 11:19:48;;;;;;;36.88;6.03;;;10.80;94.60;;;;;;5060380;28;20150;-94
2022/01/30 11:22:19;;;;;;;30.88;5.55;;;11.30;93.00;;;;;;5075558;28;20055;-93
2022/01/30 11:24:46;;;;;;;34.13;6.07;;;11.90;90.60;;;;;;5060483;28;20376;-95
2022/01/30 11:27:20;;;;;;;33.58;6.28;;;12.20;89.90;;;;;;5060272;28;20079;-93
2022/01/30 11:29:46;;;;;;;36.95;6.50;;;12.20;86.90;;;;;;5059641;28;20040;-94
2022/01/30 11:32:13;;;;;;;30.23;5.57;;;12.50;84.30;;;;;;5059602;28;20098;-95
2022/01/30 11:34:41;;;;;;;34.47;5.78;;;12.70;79.70;;;;;;5059421;28;20070;-94
2022/01/30 11:37:09;;;;;;;33.15;5.68;;;13.00;77.40;;;;;;5059976;28;20040;-96
2022/01/30 11:39:40;;;;;;;30.70;5.60;;;12.50;75.90;;;;;;5060042;28;20040;-96
2022/01/30 11:42:18;;;;;;;36.35;5.75;;;11.90;75.60;;;;;;5076022;28;20094;-91
2022/01/30 11:44:46;;;;;;;36.67;5.95;;;11.20;77.90;;;;;;5058431;28;20114;-94
2022/01/30 11:47:14;;;;;;;27.23;5.35;;;11.00;85.40;;;;;;5058563;28;20416;-92
2022/01/30 11:49:57;;;;;;;34.58;5.88;;;11.10;84.30;;;;;;5059340;28;20045;-94
2022/01/30 11:52:48;;;;;;;27.40;5.40;;;10.60;85.40;;;;;;5059021;28;20052;-95
2022/01/30 11:55:49;;;;;;;37.73;5.37;;;10.30;86.20;;;;;;5059345;28;20375;-94
2022/01/30 11:58:33;;;;;;;32.38;5.15;;;10.60;87.20;;;;;;5058325;28;20318;-94
2022/01/30 12:01:03;;;;;;;42.25;6.13;;;10.60;86.50;;;;;;5075918;28;20045;-95
2022/01/30 12:03:36;;;;;;;34.47;5.32;;;10.30;90.60;;;;;;5058406;28;20048;-93
2022/01/30 12:06:20;;;;;;;38.33;5.70;;;10.10;91.30;;;;;;5059187;28;20075;-94
2022/01/30 12:08:48;;;;;;;37.83;6.07;;;9.70;91.20;;;;;;5058516;28;20135;-91
2022/01/30 12:11:47;;;;;;;37.85;5.55;;;9.70;93.70;;;;;;5058784;28;20044;-95
2022/01/30 12:14:45;;;;;;;39.50;5.93;;;9.50;91.00;;;;;;5059837;28;20056;-94
2022/01/30 12:17:11;;;;;;;35.95;5.68;;;9.70;91.80;;;;;;5037387;28;20053;-95
2022/01/30 12:19:40;;;;;;;26.23;4.88;;;10.10;90.70;;;;;;5021376;28;20534;-94
2022/01/30 12:22:23;;;;;;;36.83;5.70;;;10.30;87.40;;;;;;5021826;28;20052;-92
2022/01/30 12:25:12;;;;;;;30.73;5.30;;;10.70;82.00;;;;;;5021583;28;20080;-94
2022/01/30 12:28:01;;;;;;;32.65;4.85;;;10.90;78.70;;;;;;5018294;28;20053;-95
2022/01/30 12:30:52;;;;;;;26.00;4.47;;;11.10;74.80;;;;;;5023236;28;20059;-94
2022/01/30 12:33:36;;;;;;;28.20;5.30;;;11.00;71.40;;;;;;5023294;28;20045;-94
2022/01/30 12:36:15;;;;;;;28.23;5.80;;;10.50;70.10;;;;;;5022210;28;20406;-94
2022/01/30 12:38:44;;;;;;;24.77;4.47;;;10.30;77.00;;;;;;5020398;28;20084;-94
2022/01/30 12:41:21;;;;;;;40.05;5.68;;;9.90;81.40;;;;;;5020971;28;20079;-94
2022/01/30 12:43:59;;;;;;;37.15;6.13;;;9.60;83.40;;;;;;5036619;28;20045;-93
2022/01/30 12:46:31;;;;;;;36.05;6.32;;;9.70;85.50;;;;;;5020500;28;20406;-93
2022/01/30 12:49:15;;;;;;;;;;;;;;;;;;;;;
2022/01/30 12:51:48;;;;;;;26.00;4.15;;;10.60;82.60;;;;;;5037826;28;20052;-94
2022/01/30 12:54:15;;;;;;;27.52;4.90;;;10.80;81.10;;;;;;5040667;28;20139;-93
2022/01/30 12:56:43;;;;;;;30.20;5.40;;;11.20;76.60;;;;;;5058479;28;20105;-95
2022/01/30 12:59:10;;;;;;;33.08;5.20;;;11.20;77.70;;;;;;5058123;28;20060;-95
2022/01/30 13:01:47;;;;;;;37.13;6.05;;;11.00;78.00;;;;;;5058829;28;20044;-94
2022/01/30 13:04:16;;;;;;;30.95;5.28;;;10.70;76.60;;;;;;5059475;28;20044;-94
2022/01/30 13:06:48;;;;;;;29.80;5.15;;;10.90;78.90;;;;;;5073879;28;20048;-95
2022/01/30 13:09:27;;;;;;;23.13;5.07;;;10.80;79.60;;;;;;5058294;28;20038;-92
2022/01/30 13:12:10;;;;;;;39.25;5.47;;;10.70;75.80;;;;;;5057622;28;20044;-94
2022/01/30 13:14:44;;;;;;;36.33;6.32;;;10.50;80.00;;;;;;5074796;28;20054;-95
2022/01/30 13:17:10;;;;;;;29.45;5.18;;;10.60;78.30;;;;;;5057358;28;20044;-95
2022/01/30 13:19:44;;;;;;;36.83;5.10;;;10.50;84.60;;;;;;5057088;28;20067;-93
2022/01/30 13:22:22;;;;;;;28.13;4.88;;;10.60;83.80;;;;;;5057471;28;20052;-94
2022/01/30 13:24:58;;;;;;;30.83;5.85;;;10.40;84.40;;;;;;5058253;28;20052;-93
2022/01/30 13:27:25;;;;;;;46.42;6.28;;;10.50;81.50;;;;;;5074529;28;20040;-93
2022/01/30 13:29:53;;;;;;;37.55;7.07;;;10.50;85.20;;;;;;5059642;28;20052;-93
2022/01/30 13:32:23;;;;;;;36.97;6.03;;;10.50;83.80;;;;;;5073851;28;20106;-92
2022/01/30 13:34:49;;;;;;;34.80;6.10;;;10.90;83.80;;;;;;5075525;28;20055;-95
2022/01/30 13:37:18;;;;;;;34.45;5.97;;;11.40;82.30;;;;;;5056818;28;20045;-95
2022/01/30 13:40:08;;;;;;;30.38;5.45;;;11.50;80.10;;;;;;5075036;28;20054;-93
2022/01/30 13:47:59;;;;;;;35.28;5.50;;;9.70;74.60;;;;;;5074544;28;20083;-95
2022/01/30 13:50:39;;;;;;;31.25;4.75;;;9.20;79.50;;;;;;5057297;28;20040;-95
2022/01/30 13:53:09;;;;;;;26.95;5.03;;;8.80;84.60;;;;;;5057459;28;20048;-93
2022/01/30 13:55:56;;;;;;;26.60;5.25;;;8.60;90.80;;;;;;5056811;28;20071;-94
2022/01/30 13:58:26;;;;;;;34.28;5.18;;;8.50;91.30;;;;;;5056643;28;20098;-93
2022/01/30 14:00:52;;;;;;;32.05;5.20;;;8.60;92.90;;;;;;5057924;28;20602;-94
2022/01/30 14:03:28;;;;;;;36.53;5.93;;;8.50;93.00;;;;;;5073503;28;20076;-93
2022/01/30 14:05:55;;;;;;;33.30;4.93;;;8.60;91.70;;;;;;5057435;28;20044;-95